sensor_id;sensor_type;location;lat;lon;timestamp;pressure;altitude;pressure_sealevel;temperature;humidity
44872;BME280;30602;51.060;17.226;2022-12-10T00:02:56;100568.45;;;1.12;97.68
44872;BME280;30602;51.060;17.226;2022-12-10T00:06:34;100568.95;;;1.12;97.50
44872;BME280;30602;51.060;17.226;2022-12-10T00:10:07;100568.24;;;1.03;97.58
44872;BME280;30602;51.060;17.226;2022-12-10T00:13:24;100566.65;;;1.02;97.85
44872;BME280;30602;51.060;17.226;2022-12-10T00:17:52;100561.52;;;1.03;98.01
44872;BME280;30602;51.060;17.226;2022-12-10T00:21:09;100559.71;;;1.02;97.78
44872;BME280;30602;51.060;17.226;2022-12-10T00:25:09;100558.11;;;1.03;98.12
44872;BME280;30602;51.060;17.226;2022-12-10T00:28:29;100539.21;;;0.89;97.99
44872;BME280;30602;51.060;17.226;2022-12-10T00:33:17;100556.22;;;1.00;98.37
44872;BME280;30602;51.060;17.226;2022-12-10T00:37:14;100565.65;;;1.14;98.16
44872;BME280;30602;51.060;17.226;2022-12-10T00:40:50;100552.46;;;1.08;97.85
44872;BME280;30602;51.060;17.226;2022-12-10T00:44:04;100563.28;;;1.16;97.60
44872;BME280;30602;51.060;17.226;2022-12-10T00:48:02;100558.72;;;1.04;97.81
44872;BME280;30602;51.060;17.226;2022-12-10T00:52:00;100547.80;;;1.03;98.16
44872;BME280;30602;51.060;17.226;2022-12-10T00:55:32;100548.11;;;0.96;98.48
44872;BME280;30602;51.060;17.226;2022-12-10T00:59:44;100550.98;;;0.94;98.82
44872;BME280;30602;51.060;17.226;2022-12-10T01:03:40;100549.99;;;0.92;98.95
44872;BME280;30602;51.060;17.226;2022-12-10T01:07:00;100550.91;;;0.90;99.07
44872;BME280;30602;51.060;17.226;2022-12-10T01:10:54;100548.28;;;0.88;99.26
44872;BME280;30602;51.060;17.226;2022-12-10T01:14:22;100556.55;;;0.92;99.13
44872;BME280;30602;51.060;17.226;2022-12-10T01:18:36;100566.95;;;0.91;99.42
44872;BME280;30602;51.060;17.226;2022-12-10T01:22:56;100571.52;;;0.92;99.32
44872;BME280;30602;51.060;17.226;2022-12-10T01:26:45;100571.03;;;0.93;99.05
44872;BME280;30602;51.060;17.226;2022-12-10T01:30:37;100570.20;;;1.00;99.19
44872;BME280;30602;51.060;17.226;2022-12-10T01:34:40;100571.30;;;1.09;98.65
44872;BME280;30602;51.060;17.226;2022-12-10T01:38:22;100568.29;;;1.04;98.51
44872;BME280;30602;51.060;17.226;2022-12-10T01:41:49;100566.95;;;1.07;98.59
44872;BME280;30602;51.060;17.226;2022-12-10T01:45:45;100567.27;;;1.08;98.62
44872;BME280;30602;51.060;17.226;2022-12-10T01:49:35;100570.30;;;1.05;98.26
44872;BME280;30602;51.060;17.226;2022-12-10T01:53:24;100574.39;;;1.01;98.27
44872;BME280;30602;51.060;17.226;2022-12-10T01:56:42;100572.63;;;1.00;98.57
44872;BME280;30602;51.060;17.226;2022-12-10T02:00:03;100571.12;;;0.95;98.64
44872;BME280;30602;51.060;17.226;2022-12-10T02:03:29;100570.29;;;0.96;98.96
44872;BME280;30602;51.060;17.226;2022-12-10T02:08:03;100557.83;;;0.90;98.95
44872;BME280;30602;51.060;17.226;2022-12-10T02:13:04;100562.02;;;0.93;98.75
44872;BME280;30602;51.060;17.226;2022-12-10T02:23:24;100566.46;;;1.12;98.04
44872;BME280;30602;51.060;17.226;2022-12-10T02:30:14;100571.55;;;1.00;98.18
44872;BME280;30602;51.060;17.226;2022-12-10T02:33:46;100570.71;;;0.93;98.13
44872;BME280;30602;51.060;17.226;2022-12-10T02:37:45;100568.63;;;0.95;98.16
44872;BME280;30602;51.060;17.226;2022-12-10T02:41:52;100579.18;;;1.12;97.56
44872;BME280;30602;51.060;17.226;2022-12-10T02:45:46;100583.33;;;1.11;97.32
44872;BME280;30602;51.060;17.226;2022-12-10T02:49:29;100582.60;;;1.15;97.00
44872;BME280;30602;51.060;17.226;2022-12-10T02:52:55;100585.58;;;1.09;96.87
44872;BME280;30602;51.060;17.226;2022-12-10T02:56:48;100586.98;;;0.97;96.92
44872;BME280;30602;51.060;17.226;2022-12-10T03:05:33;100584.88;;;0.94;97.31
44872;BME280;30602;51.060;17.226;2022-12-10T03:08:52;100576.62;;;0.90;96.94
44872;BME280;30602;51.060;17.226;2022-12-10T03:16:18;100590.16;;;0.95;97.24
44872;BME280;30602;51.060;17.226;2022-12-10T03:20:44;100591.60;;;0.98;97.40
44872;BME280;30602;51.060;17.226;2022-12-10T03:24:20;100599.31;;;0.92;97.50
44872;BME280;30602;51.060;17.226;2022-12-10T03:28:23;100601.70;;;0.84;98.32
44872;BME280;30602;51.060;17.226;2022-12-10T03:32:37;100596.16;;;0.76;98.62
44872;BME280;30602;51.060;17.226;2022-12-10T03:36:21;100600.17;;;0.79;98.84
44872;BME280;30602;51.060;17.226;2022-12-10T03:39:37;100597.43;;;0.78;99.21
44872;BME280;30602;51.060;17.226;2022-12-10T03:47:37;100584.40;;;0.82;99.00
44872;BME280;30602;51.060;17.226;2022-12-10T03:51:05;100599.78;;;0.90;98.79
44872;BME280;30602;51.060;17.226;2022-12-10T03:54:23;100569.19;;;0.74;98.71
44872;BME280;30602;51.060;17.226;2022-12-10T03:57:51;100595.92;;;0.90;98.61
44872;BME280;30602;51.060;17.226;2022-12-10T04:01:41;100603.19;;;0.90;98.35
44872;BME280;30602;51.060;17.226;2022-12-10T04:04:58;100605.00;;;0.84;98.36
44872;BME280;30602;51.060;17.226;2022-12-10T04:08:48;100605.92;;;0.83;98.22
44872;BME280;30602;51.060;17.226;2022-12-10T04:12:26;100606.57;;;0.79;98.44
44872;BME280;30602;51.060;17.226;2022-12-10T04:15:41;100614.55;;;0.84;98.43
44872;BME280;30602;51.060;17.226;2022-12-10T04:19:25;100616.54;;;0.86;98.50
44872;BME280;30602;51.060;17.226;2022-12-10T04:22:46;100622.92;;;0.77;98.19
44872;BME280;30602;51.060;17.226;2022-12-10T04:26:37;100624.98;;;0.69;98.32
44872;BME280;30602;51.060;17.226;2022-12-10T04:30:26;100629.20;;;0.81;98.70
44872;BME280;30602;51.060;17.226;2022-12-10T04:33:37;100626.10;;;0.93;98.10
44872;BME280;30602;51.060;17.226;2022-12-10T04:37:06;100631.20;;;0.90;97.42
44872;BME280;30602;51.060;17.226;2022-12-10T04:41:26;100633.79;;;0.99;97.17
44872;BME280;30602;51.060;17.226;2022-12-10T04:44:56;100635.73;;;0.91;97.06
44872;BME280;30602;51.060;17.226;2022-12-10T04:48:20;100638.89;;;0.85;96.60
44872;BME280;30602;51.060;17.226;2022-12-10T04:51:53;100641.09;;;0.80;97.18
44872;BME280;30602;51.060;17.226;2022-12-10T04:55:55;100622.54;;;0.65;97.17
44872;BME280;30602;51.060;17.226;2022-12-10T04:59:30;100648.57;;;0.75;97.08
44872;BME280;30602;51.060;17.226;2022-12-10T05:02:38;100646.49;;;0.72;96.94
44872;BME280;30602;51.060;17.226;2022-12-10T05:06:15;100644.32;;;0.75;97.11
44872;BME280;30602;51.060;17.226;2022-12-10T05:10:12;100641.12;;;0.70;97.09
44872;BME280;30602;51.060;17.226;2022-12-10T05:13:49;100640.83;;;0.65;96.88
44872;BME280;30602;51.060;17.226;2022-12-10T05:17:26;100638.46;;;0.63;96.89
44872;BME280;30602;51.060;17.226;2022-12-10T05:20:48;100641.17;;;0.64;96.77
44872;BME280;30602;51.060;17.226;2022-12-10T05:24:30;100646.89;;;0.72;97.06
44872;BME280;30602;51.060;17.226;2022-12-10T05:28:51;100656.65;;;0.87;96.70
44872;BME280;30602;51.060;17.226;2022-12-10T05:32:24;100653.55;;;0.83;96.08
44872;BME280;30602;51.060;17.226;2022-12-10T05:36:23;100656.07;;;0.82;96.08
44872;BME280;30602;51.060;17.226;2022-12-10T05:44:31;100658.42;;;0.75;96.17
44872;BME280;30602;51.060;17.226;2022-12-10T05:48:21;100664.79;;;0.72;96.07
44872;BME280;30602;51.060;17.226;2022-12-10T05:51:55;100656.12;;;0.65;96.12
44872;BME280;30602;51.060;17.226;2022-12-10T05:55:37;100663.89;;;0.69;96.55
44872;BME280;30602;51.060;17.226;2022-12-10T05:59:00;100667.85;;;0.63;96.64
44872;BME280;30602;51.060;17.226;2022-12-10T06:02:17;100669.74;;;0.59;96.92
44872;BME280;30602;51.060;17.226;2022-12-10T06:05:35;100673.08;;;0.55;97.12
44872;BME280;30602;51.060;17.226;2022-12-10T06:09:04;100670.19;;;0.55;97.14
44872;BME280;30602;51.060;17.226;2022-12-10T06:12:25;100666.37;;;0.53;97.27
44872;BME280;30602;51.060;17.226;2022-12-10T06:15:45;100667.99;;;0.50;97.23
44872;BME280;30602;51.060;17.226;2022-12-10T06:19:04;100659.38;;;0.61;97.40
44872;BME280;30602;51.060;17.226;2022-12-10T06:22:15;100662.34;;;0.71;96.68
44872;BME280;30602;51.060;17.226;2022-12-10T06:25:27;100663.91;;;0.60;96.78
44872;BME280;30602;51.060;17.226;2022-12-10T06:28:58;100666.73;;;0.60;96.72
44872;BME280;30602;51.060;17.226;2022-12-10T06:32:11;100663.23;;;0.54;96.72
44872;BME280;30602;51.060;17.226;2022-12-10T06:35:37;100665.69;;;0.55;96.69
44872;BME280;30602;51.060;17.226;2022-12-10T06:38:57;100674.66;;;0.40;97.16
44872;BME280;30602;51.060;17.226;2022-12-10T06:42:43;100667.92;;;0.39;97.14
44872;BME280;30602;51.060;17.226;2022-12-10T06:46:25;100667.70;;;0.38;97.49
44872;BME280;30602;51.060;17.226;2022-12-10T06:50:06;100665.23;;;0.32;97.62
44872;BME280;30602;51.060;17.226;2022-12-10T06:53:29;100663.38;;;0.23;97.95
44872;BME280;30602;51.060;17.226;2022-12-10T06:57:06;100669.02;;;0.28;98.10
44872;BME280;30602;51.060;17.226;2022-12-10T07:00:23;100677.27;;;0.32;98.13
44872;BME280;30602;51.060;17.226;2022-12-10T07:04:00;100687.58;;;0.32;97.96
44872;BME280;30602;51.060;17.226;2022-12-10T07:08:07;100689.73;;;0.23;97.70
44872;BME280;30602;51.060;17.226;2022-12-10T07:11:51;100690.87;;;0.29;97.46
44872;BME280;30602;51.060;17.226;2022-12-10T07:15:07;100695.50;;;0.29;97.30
44872;BME280;30602;51.060;17.226;2022-12-10T07:18:39;100696.88;;;0.32;96.84
44872;BME280;30602;51.060;17.226;2022-12-10T07:21:55;100701.95;;;0.43;96.24
44872;BME280;30602;51.060;17.226;2022-12-10T07:25:36;100704.43;;;0.40;95.56
44872;BME280;30602;51.060;17.226;2022-12-10T07:29:04;100692.51;;;0.38;95.27
44872;BME280;30602;51.060;17.226;2022-12-10T07:32:18;100691.55;;;0.41;95.79
44872;BME280;30602;51.060;17.226;2022-12-10T07:35:48;100689.59;;;0.31;95.86
44872;BME280;30602;51.060;17.226;2022-12-10T07:39:08;100687.08;;;0.27;96.70
44872;BME280;30602;51.060;17.226;2022-12-10T07:42:30;100686.09;;;0.30;97.10
44872;BME280;30602;51.060;17.226;2022-12-10T07:46:23;100689.58;;;0.13;97.13
44872;BME280;30602;51.060;17.226;2022-12-10T07:49:33;100692.30;;;0.22;97.45
44872;BME280;30602;51.060;17.226;2022-12-10T07:52:51;100701.70;;;0.27;97.34
44872;BME280;30602;51.060;17.226;2022-12-10T07:56:35;100712.23;;;0.25;97.04
44872;BME280;30602;51.060;17.226;2022-12-10T07:59:54;100718.90;;;0.27;96.88
44872;BME280;30602;51.060;17.226;2022-12-10T08:03:24;100724.78;;;0.21;96.88
44872;BME280;30602;51.060;17.226;2022-12-10T08:07:09;100707.84;;;0.13;96.85
44872;BME280;30602;51.060;17.226;2022-12-10T08:10:59;100733.69;;;0.28;97.13
44872;BME280;30602;51.060;17.226;2022-12-10T08:14:19;100728.48;;;0.44;97.00
44872;BME280;30602;51.060;17.226;2022-12-10T08:17:27;100729.03;;;0.46;96.39
44872;BME280;30602;51.060;17.226;2022-12-10T08:21:18;100728.52;;;0.53;96.59
44872;BME280;30602;51.060;17.226;2022-12-10T08:24:54;100729.56;;;0.51;96.34
44872;BME280;30602;51.060;17.226;2022-12-10T08:28:26;100732.34;;;0.49;96.42
44872;BME280;30602;51.060;17.226;2022-12-10T08:32:38;100729.24;;;0.42;96.59
44872;BME280;30602;51.060;17.226;2022-12-10T08:36:32;100739.74;;;0.56;96.59
44872;BME280;30602;51.060;17.226;2022-12-10T08:44:06;100740.04;;;0.59;96.26
44872;BME280;30602;51.060;17.226;2022-12-10T08:47:53;100739.27;;;0.52;96.51
44872;BME280;30602;51.060;17.226;2022-12-10T08:51:26;100745.09;;;0.50;96.94
44872;BME280;30602;51.060;17.226;2022-12-10T08:54:38;100747.02;;;0.49;97.28
44872;BME280;30602;51.060;17.226;2022-12-10T09:02:24;100744.58;;;0.49;96.83
44872;BME280;30602;51.060;17.226;2022-12-10T09:05:54;100736.46;;;0.41;97.04
44872;BME280;30602;51.060;17.226;2022-12-10T09:09:37;100736.00;;;0.45;97.05
44872;BME280;30602;51.060;17.226;2022-12-10T09:12:45;100730.39;;;0.55;97.02
44872;BME280;30602;51.060;17.226;2022-12-10T09:16:01;100717.15;;;0.41;96.86
44872;BME280;30602;51.060;17.226;2022-12-10T09:19:38;100731.46;;;0.43;97.25
44872;BME280;30602;51.060;17.226;2022-12-10T09:22:51;100732.59;;;0.45;97.42
44872;BME280;30602;51.060;17.226;2022-12-10T09:26:06;100733.63;;;0.48;97.22
44872;BME280;30602;51.060;17.226;2022-12-10T09:29:52;100735.76;;;0.37;97.09
44872;BME280;30602;51.060;17.226;2022-12-10T09:33:32;100736.53;;;0.34;96.91
44872;BME280;30602;51.060;17.226;2022-12-10T09:37:24;100737.87;;;0.29;97.07
44872;BME280;30602;51.060;17.226;2022-12-10T09:52:43;100720.78;;;0.51;96.38
44872;BME280;30602;51.060;17.226;2022-12-10T09:56:03;100721.43;;;0.49;96.09
44872;BME280;30602;51.060;17.226;2022-12-10T10:03:41;100720.75;;;0.53;95.84
44872;BME280;30602;51.060;17.226;2022-12-10T10:07:30;100715.25;;;0.55;96.00
44872;BME280;30602;51.060;17.226;2022-12-10T10:11:28;100704.55;;;0.72;95.99
44872;BME280;30602;51.060;17.226;2022-12-10T10:14:44;100698.01;;;0.66;95.27
44872;BME280;30602;51.060;17.226;2022-12-10T10:22:12;100693.35;;;0.66;95.21
44872;BME280;30602;51.060;17.226;2022-12-10T10:25:22;100686.79;;;0.65;95.28
44872;BME280;30602;51.060;17.226;2022-12-10T10:28:36;100684.37;;;0.61;95.69
44872;BME280;30602;51.060;17.226;2022-12-10T10:32:45;100683.61;;;0.66;95.36
44872;BME280;30602;51.060;17.226;2022-12-10T10:36:36;100686.10;;;0.69;95.34
44872;BME280;30602;51.060;17.226;2022-12-10T10:44:38;100682.01;;;0.58;94.78
44872;BME280;30602;51.060;17.226;2022-12-10T10:48:04;100684.02;;;0.61;94.84
44872;BME280;30602;51.060;17.226;2022-12-10T10:51:43;100681.60;;;0.61;95.06
44872;BME280;30602;51.060;17.226;2022-12-10T10:59:46;100673.72;;;0.59;94.85
44872;BME280;30602;51.060;17.226;2022-12-10T11:03:58;100677.04;;;0.59;94.80
44872;BME280;30602;51.060;17.226;2022-12-10T11:08:18;100657.66;;;0.49;94.61
44872;BME280;30602;51.060;17.226;2022-12-10T11:11:50;100684.83;;;0.86;94.34
44872;BME280;30602;51.060;17.226;2022-12-10T11:15:38;100679.32;;;0.69;94.22
44872;BME280;30602;51.060;17.226;2022-12-10T11:19:20;100692.20;;;0.82;93.76
44872;BME280;30602;51.060;17.226;2022-12-10T11:22:33;100697.50;;;0.82;93.54
44872;BME280;30602;51.060;17.226;2022-12-10T11:27:01;100702.70;;;0.80;93.37
44872;BME280;30602;51.060;17.226;2022-12-10T11:30:29;100709.82;;;0.87;93.36
44872;BME280;30602;51.060;17.226;2022-12-10T11:48:40;100707.73;;;0.79;92.82
44872;BME280;30602;51.060;17.226;2022-12-10T11:55:49;100710.12;;;0.82;92.59
44872;BME280;30602;51.060;17.226;2022-12-10T12:17:34;100703.27;;;1.07;91.96
44872;BME280;30602;51.060;17.226;2022-12-10T12:21:17;100708.93;;;1.01;91.84
44872;BME280;30602;51.060;17.226;2022-12-10T12:24:35;100705.33;;;0.94;92.00
44872;BME280;30602;51.060;17.226;2022-12-10T12:28:41;100696.03;;;0.99;91.85
44872;BME280;30602;51.060;17.226;2022-12-10T12:35:50;100699.58;;;0.97;92.10
44872;BME280;30602;51.060;17.226;2022-12-10T12:46:48;100689.84;;;0.84;92.46
44872;BME280;30602;51.060;17.226;2022-12-10T12:50:40;100680.22;;;0.77;92.34
44872;BME280;30602;51.060;17.226;2022-12-10T12:54:37;100694.67;;;0.83;92.28
44872;BME280;30602;51.060;17.226;2022-12-10T12:58:16;100669.06;;;0.73;92.23
44872;BME280;30602;51.060;17.226;2022-12-10T13:01:58;100686.66;;;0.88;92.04
44872;BME280;30602;51.060;17.226;2022-12-10T13:05:47;100681.58;;;0.97;91.68
44872;BME280;30602;51.060;17.226;2022-12-10T13:09:18;100679.66;;;0.99;91.39
44872;BME280;30602;51.060;17.226;2022-12-10T13:13:15;100673.95;;;0.97;91.91
44872;BME280;30602;51.060;17.226;2022-12-10T13:17:37;100671.32;;;0.89;91.61
44872;BME280;30602;51.060;17.226;2022-12-10T13:21:29;100683.10;;;0.88;91.83
44872;BME280;30602;51.060;17.226;2022-12-10T13:29:24;100694.69;;;0.90;92.52
44872;BME280;30602;51.060;17.226;2022-12-10T13:48:26;100698.47;;;0.96;91.14
44872;BME280;30602;51.060;17.226;2022-12-10T13:56:24;100710.02;;;1.01;91.14
44872;BME280;30602;51.060;17.226;2022-12-10T14:04:15;100715.45;;;1.11;90.55
44872;BME280;30602;51.060;17.226;2022-12-10T14:08:06;100710.60;;;1.06;90.72
44872;BME280;30602;51.060;17.226;2022-12-10T14:11:43;100704.27;;;1.02;90.85
44872;BME280;30602;51.060;17.226;2022-12-10T14:15:51;100703.39;;;0.84;91.09
44872;BME280;30602;51.060;17.226;2022-12-10T14:19:35;100710.73;;;0.83;91.51
44872;BME280;30602;51.060;17.226;2022-12-10T14:22:53;100716.45;;;0.92;91.62
44872;BME280;30602;51.060;17.226;2022-12-10T14:27:03;100721.33;;;0.86;91.60
44872;BME280;30602;51.060;17.226;2022-12-10T14:30:43;100729.26;;;0.91;91.66
44872;BME280;30602;51.060;17.226;2022-12-10T14:34:06;100739.95;;;0.91;91.64
44872;BME280;30602;51.060;17.226;2022-12-10T14:37:26;100735.45;;;0.88;91.60
44872;BME280;30602;51.060;17.226;2022-12-10T14:41:53;100734.13;;;0.84;91.83
44872;BME280;30602;51.060;17.226;2022-12-10T14:49:26;100737.89;;;0.82;91.56
44872;BME280;30602;51.060;17.226;2022-12-10T14:53:17;100752.27;;;0.94;91.81
44872;BME280;30602;51.060;17.226;2022-12-10T14:56:36;100757.01;;;1.05;91.53
44872;BME280;30602;51.060;17.226;2022-12-10T15:00:14;100757.20;;;0.97;91.59
44872;BME280;30602;51.060;17.226;2022-12-10T15:04:17;100762.23;;;0.98;91.86
44872;BME280;30602;51.060;17.226;2022-12-10T15:07:31;100768.20;;;0.96;91.83
44872;BME280;30602;51.060;17.226;2022-12-10T15:10:49;100770.98;;;0.85;91.76
44872;BME280;30602;51.060;17.226;2022-12-10T15:14:04;100759.53;;;0.69;91.92
44872;BME280;30602;51.060;17.226;2022-12-10T15:17:38;100766.51;;;0.75;92.04
44872;BME280;30602;51.060;17.226;2022-12-10T15:20:54;100766.90;;;0.75;92.23
44872;BME280;30602;51.060;17.226;2022-12-10T15:24:46;100764.73;;;0.74;92.60
44872;BME280;30602;51.060;17.226;2022-12-10T15:32:49;100766.63;;;0.81;92.40
44872;BME280;30602;51.060;17.226;2022-12-10T15:36:03;100767.44;;;0.83;92.31
44872;BME280;30602;51.060;17.226;2022-12-10T15:39:52;100768.52;;;0.80;92.44
44872;BME280;30602;51.060;17.226;2022-12-10T15:43:37;100770.82;;;0.86;92.50
44872;BME280;30602;51.060;17.226;2022-12-10T15:50:29;100771.55;;;0.98;92.03
44872;BME280;30602;51.060;17.226;2022-12-10T15:53:48;100757.62;;;0.84;91.97
44872;BME280;30602;51.060;17.226;2022-12-10T15:57:15;100777.16;;;0.90;91.96
44872;BME280;30602;51.060;17.226;2022-12-10T16:00:29;100774.48;;;0.85;91.98
44872;BME280;30602;51.060;17.226;2022-12-10T16:04:00;100773.64;;;0.86;92.02
44872;BME280;30602;51.060;17.226;2022-12-10T16:11:53;100781.50;;;0.90;91.93
44872;BME280;30602;51.060;17.226;2022-12-10T16:15:21;100775.98;;;0.85;92.09
44872;BME280;30602;51.060;17.226;2022-12-10T16:19:11;100767.04;;;0.74;92.05
44872;BME280;30602;51.060;17.226;2022-12-10T16:23:22;100763.41;;;0.77;92.30
44872;BME280;30602;51.060;17.226;2022-12-10T16:27:16;100757.60;;;0.75;91.90
44872;BME280;30602;51.060;17.226;2022-12-10T16:35:05;100753.84;;;0.69;92.10
44872;BME280;30602;51.060;17.226;2022-12-10T16:39:01;100746.55;;;0.76;92.30
44872;BME280;30602;51.060;17.226;2022-12-10T16:42:16;100751.63;;;0.80;91.61
44872;BME280;30602;51.060;17.226;2022-12-10T16:46:28;100742.35;;;0.72;91.92
44872;BME280;30602;51.060;17.226;2022-12-10T16:50:40;100748.47;;;0.76;91.95
44872;BME280;30602;51.060;17.226;2022-12-10T16:55:22;100746.37;;;0.75;92.01
44872;BME280;30602;51.060;17.226;2022-12-10T16:58:59;100737.12;;;0.72;92.01
44872;BME280;30602;51.060;17.226;2022-12-10T17:02:18;100747.77;;;0.76;91.98
44872;BME280;30602;51.060;17.226;2022-12-10T17:05:45;100737.73;;;0.57;91.95
44872;BME280;30602;51.060;17.226;2022-12-10T17:09:51;100746.06;;;0.62;92.37
44872;BME280;30602;51.060;17.226;2022-12-10T17:13:13;100744.60;;;0.62;92.36
44872;BME280;30602;51.060;17.226;2022-12-10T17:16:27;100754.20;;;0.61;92.71
44872;BME280;30602;51.060;17.226;2022-12-10T17:20:20;100758.87;;;0.63;92.70
44872;BME280;30602;51.060;17.226;2022-12-10T17:23:46;100759.99;;;0.67;92.55
44872;BME280;30602;51.060;17.226;2022-12-10T17:27:19;100768.98;;;0.58;92.71
44872;BME280;30602;51.060;17.226;2022-12-10T17:35:24;100774.49;;;0.71;92.48
44872;BME280;30602;51.060;17.226;2022-12-10T17:39:14;100779.33;;;0.71;92.24
44872;BME280;30602;51.060;17.226;2022-12-10T17:42:55;100779.08;;;0.72;92.29
44872;BME280;30602;51.060;17.226;2022-12-10T17:47:31;100779.99;;;0.70;92.29
44872;BME280;30602;51.060;17.226;2022-12-10T17:50:53;100786.79;;;0.72;91.89
44872;BME280;30602;51.060;17.226;2022-12-10T17:54:28;100792.59;;;0.64;92.00
44872;BME280;30602;51.060;17.226;2022-12-10T17:57:58;100797.88;;;0.61;92.19
44872;BME280;30602;51.060;17.226;2022-12-10T18:01:33;100801.33;;;0.62;92.03
44872;BME280;30602;51.060;17.226;2022-12-10T18:04:54;100799.50;;;0.65;92.30
44872;BME280;30602;51.060;17.226;2022-12-10T18:08:42;100802.56;;;0.63;92.36
44872;BME280;30602;51.060;17.226;2022-12-10T18:11:56;100799.35;;;0.60;92.26
44872;BME280;30602;51.060;17.226;2022-12-10T18:15:34;100799.55;;;0.54;92.79
44872;BME280;30602;51.060;17.226;2022-12-10T18:19:06;100786.40;;;0.63;92.91
44872;BME280;30602;51.060;17.226;2022-12-10T18:23:11;100778.02;;;0.57;92.94
44872;BME280;30602;51.060;17.226;2022-12-10T18:27:42;100776.38;;;0.60;93.02
44872;BME280;30602;51.060;17.226;2022-12-10T18:31:03;100776.55;;;0.56;92.70
44872;BME280;30602;51.060;17.226;2022-12-10T18:35:17;100769.37;;;0.51;92.84
44872;BME280;30602;51.060;17.226;2022-12-10T18:38:48;100765.91;;;0.48;93.12
44872;BME280;30602;51.060;17.226;2022-12-10T18:42:04;100761.54;;;0.55;92.73
44872;BME280;30602;51.060;17.226;2022-12-10T18:46:26;100766.02;;;0.55;92.78
44872;BME280;30602;51.060;17.226;2022-12-10T18:50:01;100762.34;;;0.57;92.31
44872;BME280;30602;51.060;17.226;2022-12-10T18:53:43;100756.63;;;0.48;92.23
44872;BME280;30602;51.060;17.226;2022-12-10T18:57:28;100757.73;;;0.47;91.99
44872;BME280;30602;51.060;17.226;2022-12-10T19:00:43;100762.41;;;0.52;92.04
44872;BME280;30602;51.060;17.226;2022-12-10T19:04:12;100766.45;;;0.46;92.30
44872;BME280;30602;51.060;17.226;2022-12-10T19:15:31;100770.38;;;0.42;92.13
44872;BME280;30602;51.060;17.226;2022-12-10T19:18:47;100774.51;;;0.41;92.87
44872;BME280;30602;51.060;17.226;2022-12-10T19:22:09;100772.24;;;0.40;92.75
44872;BME280;30602;51.060;17.226;2022-12-10T19:25:20;100769.77;;;0.41;93.07
44872;BME280;30602;51.060;17.226;2022-12-10T19:29:12;100762.89;;;0.41;93.17
44872;BME280;30602;51.060;17.226;2022-12-10T19:32:25;100743.87;;;0.29;92.69
44872;BME280;30602;51.060;17.226;2022-12-10T19:36:03;100762.31;;;0.53;92.30
44872;BME280;30602;51.060;17.226;2022-12-10T19:40:02;100770.80;;;0.39;92.30
44872;BME280;30602;51.060;17.226;2022-12-10T19:44:00;100769.03;;;0.42;92.45
44872;BME280;30602;51.060;17.226;2022-12-10T19:47:35;100764.16;;;0.40;92.46
44872;BME280;30602;51.060;17.226;2022-12-10T19:50:52;100767.69;;;0.34;92.77
44872;BME280;30602;51.060;17.226;2022-12-10T19:54:58;100775.77;;;0.39;93.23
44872;BME280;30602;51.060;17.226;2022-12-10T19:58:39;100778.50;;;0.42;92.87
44872;BME280;30602;51.060;17.226;2022-12-10T20:01:49;100768.27;;;0.29;92.72
44872;BME280;30602;51.060;17.226;2022-12-10T20:05:23;100780.20;;;0.29;92.65
44872;BME280;30602;51.060;17.226;2022-12-10T20:09:23;100765.87;;;0.18;92.88
44872;BME280;30602;51.060;17.226;2022-12-10T20:13:19;100783.13;;;0.30;93.09
44872;BME280;30602;51.060;17.226;2022-12-10T20:21:49;100775.07;;;0.33;92.87
44872;BME280;30602;51.060;17.226;2022-12-10T20:25:18;100778.12;;;0.40;92.98
44872;BME280;30602;51.060;17.226;2022-12-10T20:29:26;100772.35;;;0.48;92.91
44872;BME280;30602;51.060;17.226;2022-12-10T20:32:47;100773.26;;;0.41;92.79
44872;BME280;30602;51.060;17.226;2022-12-10T20:36:47;100766.72;;;0.42;92.81
44872;BME280;30602;51.060;17.226;2022-12-10T20:40:48;100757.66;;;0.39;92.93
44872;BME280;30602;51.060;17.226;2022-12-10T20:44:47;100749.53;;;0.39;92.80
44872;BME280;30602;51.060;17.226;2022-12-10T20:48:04;100742.68;;;0.36;92.81
44872;BME280;30602;51.060;17.226;2022-12-10T20:51:23;100746.44;;;0.30;92.91
44872;BME280;30602;51.060;17.226;2022-12-10T20:55:01;100700.23;;;-0.02;92.81
44872;BME280;30602;51.060;17.226;2022-12-10T20:58:35;100742.54;;;0.24;93.17
44872;BME280;30602;51.060;17.226;2022-12-10T21:02:54;100749.50;;;0.17;92.80
44872;BME280;30602;51.060;17.226;2022-12-10T21:07:05;100754.53;;;0.21;92.95
44872;BME280;30602;51.060;17.226;2022-12-10T21:11:08;100752.47;;;0.19;93.23
44872;BME280;30602;51.060;17.226;2022-12-10T21:15:13;100749.37;;;0.26;93.14
44872;BME280;30602;51.060;17.226;2022-12-10T21:18:33;100751.51;;;0.16;93.20
44872;BME280;30602;51.060;17.226;2022-12-10T21:22:19;100759.17;;;0.24;93.38
44872;BME280;30602;51.060;17.226;2022-12-10T21:27:09;100765.56;;;0.32;93.00
44872;BME280;30602;51.060;17.226;2022-12-10T21:30:53;100765.67;;;0.32;92.60
44872;BME280;30602;51.060;17.226;2022-12-10T21:35:08;100778.20;;;0.17;92.63
44872;BME280;30602;51.060;17.226;2022-12-10T21:38:52;100773.45;;;0.11;92.82
44872;BME280;30602;51.060;17.226;2022-12-10T21:42:46;100758.43;;;0.01;92.68
44872;BME280;30602;51.060;17.226;2022-12-10T21:46:55;100781.02;;;0.18;92.65
44872;BME280;30602;51.060;17.226;2022-12-10T21:51:05;100777.51;;;0.14;92.71
44872;BME280;30602;51.060;17.226;2022-12-10T21:54:26;100780.35;;;0.14;92.42
44872;BME280;30602;51.060;17.226;2022-12-10T21:58:25;100784.76;;;-0.01;92.47
44872;BME280;30602;51.060;17.226;2022-12-10T22:01:42;100778.15;;;0.10;92.70
44872;BME280;30602;51.060;17.226;2022-12-10T22:05:18;100779.02;;;0.04;92.48
44872;BME280;30602;51.060;17.226;2022-12-10T22:08:36;100779.66;;;0.05;92.69